sensor_id;sensor_type;location;lat;lon;timestamp;temperature;humidity
14699;DHT22;7439;50.804;4.602;2022-09-30T00:00:56;4.10;1.00
14699;DHT22;7439;50.804;4.602;2022-09-30T00:03:23;4.10;33.40
14699;DHT22;7439;50.804;4.602;2022-09-30T00:05:57;4.10;67.90
14699;DHT22;7439;50.804;4.602;2022-09-30T00:08:26;4.00;97.10
14699;DHT22;7439;50.804;4.602;2022-09-30T00:11:03;4.10;99.90
14699;DHT22;7439;50.804;4.602;2022-09-30T00:13:31;4.20;99.90
14699;DHT22;7439;50.804;4.602;2022-09-30T00:15:59;4.20;99.90
14699;DHT22;7439;50.804;4.602;2022-09-30T00:18:27;4.10;99.90
14699;DHT22;7439;50.804;4.602;2022-09-30T00:20:57;4.00;99.90
14699;DHT22;7439;50.804;4.602;2022-09-30T00:23:26;4.00;99.90
14699;DHT22;7439;50.804;4.602;2022-09-30T00:25:58;4.00;99.90
14699;DHT22;7439;50.804;4.602;2022-09-30T00:28:26;4.00;99.90
14699;DHT22;7439;50.804;4.602;2022-09-30T00:30:56;4.00;99.90
14699;DHT22;7439;50.804;4.602;2022-09-30T00:33:24;4.00;99.90
14699;DHT22;7439;50.804;4.602;2022-09-30T00:35:51;3.90;99.90
14699;DHT22;7439;50.804;4.602;2022-09-30T00:38:19;3.90;99.90
14699;DHT22;7439;50.804;4.602;2022-09-30T00:40:48;3.90;99.90
14699;DHT22;7439;50.804;4.602;2022-09-30T00:43:19;3.90;1.00
14699;DHT22;7439;50.804;4.602;2022-09-30T00:45:50;3.90;1.00
14699;DHT22;7439;50.804;4.602;2022-09-30T00:48:22;3.80;1.00
14699;DHT22;7439;50.804;4.602;2022-09-30T00:50:51;3.70;1.00
14699;DHT22;7439;50.804;4.602;2022-09-30T00:53:23;3.80;1.00
14699;DHT22;7439;50.804;4.602;2022-09-30T00:55:57;3.90;1.00
14699;DHT22;7439;50.804;4.602;2022-09-30T00:58:29;3.90;1.00
14699;DHT22;7439;50.804;4.602;2022-09-30T01:00:58;3.80;1.00
14699;DHT22;7439;50.804;4.602;2022-09-30T01:03:29;3.70;1.00
14699;DHT22;7439;50.804;4.602;2022-09-30T01:05:56;3.70;1.00
14699;DHT22;7439;50.804;4.602;2022-09-30T01:08:25;3.80;1.00
14699;DHT22;7439;50.804;4.602;2022-09-30T01:10:54;3.80;1.00
14699;DHT22;7439;50.804;4.602;2022-09-30T01:13:24;3.80;1.00
14699;DHT22;7439;50.804;4.602;2022-09-30T01:16:03;3.70;1.00
14699;DHT22;7439;50.804;4.602;2022-09-30T01:18:43;3.70;1.00
14699;DHT22;7439;50.804;4.602;2022-09-30T01:27:21;3.50;1.00
14699;DHT22;7439;50.804;4.602;2022-09-30T01:30:12;3.50;1.00
14699;DHT22;7439;50.804;4.602;2022-09-30T01:33:14;3.50;1.00
14699;DHT22;7439;50.804;4.602;2022-09-30T01:35:57;3.40;1.00
14699;DHT22;7439;50.804;4.602;2022-09-30T01:38:30;3.40;1.00
14699;DHT22;7439;50.804;4.602;2022-09-30T01:41:06;3.30;1.00
14699;DHT22;7439;50.804;4.602;2022-09-30T01:43:41;3.40;13.70
14699;DHT22;7439;50.804;4.602;2022-09-30T01:46:19;3.40;74.00
14699;DHT22;7439;50.804;4.602;2022-09-30T01:48:54;3.40;99.90
14699;DHT22;7439;50.804;4.602;2022-09-30T01:51:28;3.50;99.90
14699;DHT22;7439;50.804;4.602;2022-09-30T01:54:06;3.50;99.90
14699;DHT22;7439;50.804;4.602;2022-09-30T01:56:37;3.40;99.90
14699;DHT22;7439;50.804;4.602;2022-09-30T01:59:08;3.30;99.90
14699;DHT22;7439;50.804;4.602;2022-09-30T02:01:40;3.30;99.90
14699;DHT22;7439;50.804;4.602;2022-09-30T02:04:18;3.20;99.90
14699;DHT22;7439;50.804;4.602;2022-09-30T02:06:49;3.20;99.90
14699;DHT22;7439;50.804;4.602;2022-09-30T02:09:21;3.20;99.90
14699;DHT22;7439;50.804;4.602;2022-09-30T02:11:51;3.20;99.90
14699;DHT22;7439;50.804;4.602;2022-09-30T02:14:25;3.20;99.90
14699;DHT22;7439;50.804;4.602;2022-09-30T02:16:58;3.40;1.00
14699;DHT22;7439;50.804;4.602;2022-09-30T02:19:36;3.40;1.00
14699;DHT22;7439;50.804;4.602;2022-09-30T02:22:07;3.30;99.90
14699;DHT22;7439;50.804;4.602;2022-09-30T02:24:37;3.20;99.90
14699;DHT22;7439;50.804;4.602;2022-09-30T02:27:08;3.20;99.90
14699;DHT22;7439;50.804;4.602;2022-09-30T02:29:40;3.30;1.00
14699;DHT22;7439;50.804;4.602;2022-09-30T02:32:14;3.30;1.00
14699;DHT22;7439;50.804;4.602;2022-09-30T02:34:49;3.20;1.00
14699;DHT22;7439;50.804;4.602;2022-09-30T02:37:20;3.10;1.00
14699;DHT22;7439;50.804;4.602;2022-09-30T02:39:53;3.20;1.00
14699;DHT22;7439;50.804;4.602;2022-09-30T02:42:25;3.20;1.00
14699;DHT22;7439;50.804;4.602;2022-09-30T02:44:54;3.10;1.00
14699;DHT22;7439;50.804;4.602;2022-09-30T02:47:27;3.10;1.00
14699;DHT22;7439;50.804;4.602;2022-09-30T02:50:06;3.10;1.00
14699;DHT22;7439;50.804;4.602;2022-09-30T02:52:45;3.00;1.00
14699;DHT22;7439;50.804;4.602;2022-09-30T02:55:17;3.00;1.00
14699;DHT22;7439;50.804;4.602;2022-09-30T02:57:55;2.90;1.00
14699;DHT22;7439;50.804;4.602;2022-09-30T03:00:24;2.90;1.00
14699;DHT22;7439;50.804;4.602;2022-09-30T03:02:54;2.90;1.00
14699;DHT22;7439;50.804;4.602;2022-09-30T03:05:23;3.00;1.00
14699;DHT22;7439;50.804;4.602;2022-09-30T03:07:50;3.00;1.00
14699;DHT22;7439;50.804;4.602;2022-09-30T03:10:18;3.00;1.00
14699;DHT22;7439;50.804;4.602;2022-09-30T03:13:02;3.00;1.00
14699;DHT22;7439;50.804;4.602;2022-09-30T03:15:42;2.90;1.00
14699;DHT22;7439;50.804;4.602;2022-09-30T03:18:24;2.90;1.00
14699;DHT22;7439;50.804;4.602;2022-09-30T03:21:13;3.00;1.00
14699;DHT22;7439;50.804;4.602;2022-09-30T03:24:11;3.00;1.00
14699;DHT22;7439;50.804;4.602;2022-09-30T03:26:51;2.90;1.00
14699;DHT22;7439;50.804;4.602;2022-09-30T03:29:28;2.80;1.00
14699;DHT22;7439;50.804;4.602;2022-09-30T03:32:08;2.80;1.00
14699;DHT22;7439;50.804;4.602;2022-09-30T03:34:45;2.80;1.00
14699;DHT22;7439;50.804;4.602;2022-09-30T03:37:24;2.80;1.00
14699;DHT22;7439;50.804;4.602;2022-09-30T03:39:56;2.80;29.10
14699;DHT22;7439;50.804;4.602;2022-09-30T03:42:28;2.80;78.40
14699;DHT22;7439;50.804;4.602;2022-09-30T03:45:02;2.70;97.00
14699;DHT22;7439;50.804;4.602;2022-09-30T03:47:34;2.70;99.90
14699;DHT22;7439;50.804;4.602;2022-09-30T03:50:06;2.70;99.90
14699;DHT22;7439;50.804;4.602;2022-09-30T03:52:36;2.70;99.90
14699;DHT22;7439;50.804;4.602;2022-09-30T03:55:07;2.70;99.90
14699;DHT22;7439;50.804;4.602;2022-09-30T03:57:36;2.70;99.90
14699;DHT22;7439;50.804;4.602;2022-09-30T04:00:09;2.60;99.90
14699;DHT22;7439;50.804;4.602;2022-09-30T04:02:37;2.70;99.90
14699;DHT22;7439;50.804;4.602;2022-09-30T04:05:06;2.80;1.00
14699;DHT22;7439;50.804;4.602;2022-09-30T04:07:37;2.70;1.00
14699;DHT22;7439;50.804;4.602;2022-09-30T04:10:07;2.70;1.00
14699;DHT22;7439;50.804;4.602;2022-09-30T04:12:35;2.70;1.00
14699;DHT22;7439;50.804;4.602;2022-09-30T04:15:09;2.70;1.00
14699;DHT22;7439;50.804;4.602;2022-09-30T04:17:39;2.70;1.00
14699;DHT22;7439;50.804;4.602;2022-09-30T04:20:12;2.70;1.00
14699;DHT22;7439;50.804;4.602;2022-09-30T04:22:41;2.70;1.00
14699;DHT22;7439;50.804;4.602;2022-09-30T04:25:08;2.60;1.00
14699;DHT22;7439;50.804;4.602;2022-09-30T04:27:38;2.60;1.00
14699;DHT22;7439;50.804;4.602;2022-09-30T04:30:09;2.50;1.00
14699;DHT22;7439;50.804;4.602;2022-09-30T04:32:41;2.50;1.00
14699;DHT22;7439;50.804;4.602;2022-09-30T04:35:10;2.50;1.00
14699;DHT22;7439;50.804;4.602;2022-09-30T04:37:42;2.50;1.00
14699;DHT22;7439;50.804;4.602;2022-09-30T04:40:10;2.50;1.00
14699;DHT22;7439;50.804;4.602;2022-09-30T04:42:37;2.50;11.90
14699;DHT22;7439;50.804;4.602;2022-09-30T04:45:10;2.50;72.40
14699;DHT22;7439;50.804;4.602;2022-09-30T04:47:42;2.50;99.90
14699;DHT22;7439;50.804;4.602;2022-09-30T04:50:10;2.60;99.90
14699;DHT22;7439;50.804;4.602;2022-09-30T04:52:42;2.50;99.90
14699;DHT22;7439;50.804;4.602;2022-09-30T04:55:10;2.40;99.90
14699;DHT22;7439;50.804;4.602;2022-09-30T04:57:37;2.40;99.90
14699;DHT22;7439;50.804;4.602;2022-09-30T05:00:05;2.40;99.90
14699;DHT22;7439;50.804;4.602;2022-09-30T05:02:35;2.50;99.90
14699;DHT22;7439;50.804;4.602;2022-09-30T05:05:08;2.50;99.90
14699;DHT22;7439;50.804;4.602;2022-09-30T05:07:38;2.50;1.00
14699;DHT22;7439;50.804;4.602;2022-09-30T05:10:09;2.40;99.90
14699;DHT22;7439;50.804;4.602;2022-09-30T05:12:37;2.40;1.00
14699;DHT22;7439;50.804;4.602;2022-09-30T05:15:08;2.50;1.00
14699;DHT22;7439;50.804;4.602;2022-09-30T05:17:38;2.50;1.00
14699;DHT22;7439;50.804;4.602;2022-09-30T05:20:07;2.40;1.00
14699;DHT22;7439;50.804;4.602;2022-09-30T05:22:37;2.30;1.00
14699;DHT22;7439;50.804;4.602;2022-09-30T05:25:05;2.50;1.00
14699;DHT22;7439;50.804;4.602;2022-09-30T05:27:39;2.40;1.00
14699;DHT22;7439;50.804;4.602;2022-09-30T05:30:10;2.30;1.00
14699;DHT22;7439;50.804;4.602;2022-09-30T05:32:40;2.30;1.00
14699;DHT22;7439;50.804;4.602;2022-09-30T05:35:07;2.30;1.00
14699;DHT22;7439;50.804;4.602;2022-09-30T05:37:39;2.30;1.00
14699;DHT22;7439;50.804;4.602;2022-09-30T05:40:10;2.40;13.90
14699;DHT22;7439;50.804;4.602;2022-09-30T05:42:41;2.40;20.70
14699;DHT22;7439;50.804;4.602;2022-09-30T05:45:10;2.40;99.90
14699;DHT22;7439;50.804;4.602;2022-09-30T05:47:39;2.50;99.90
14699;DHT22;7439;50.804;4.602;2022-09-30T05:50:09;2.40;99.90
14699;DHT22;7439;50.804;4.602;2022-09-30T05:52:38;2.30;99.90
14699;DHT22;7439;50.804;4.602;2022-09-30T05:55:06;2.30;99.90
14699;DHT22;7439;50.804;4.602;2022-09-30T05:57:33;2.40;99.90
14699;DHT22;7439;50.804;4.602;2022-09-30T06:00:02;2.40;99.90
14699;DHT22;7439;50.804;4.602;2022-09-30T06:02:29;2.30;99.90
14699;DHT22;7439;50.804;4.602;2022-09-30T06:04:56;2.40;99.90
14699;DHT22;7439;50.804;4.602;2022-09-30T06:07:24;2.40;99.90
14699;DHT22;7439;50.804;4.602;2022-09-30T06:09:51;2.40;1.00
14699;DHT22;7439;50.804;4.602;2022-09-30T06:12:18;2.50;1.00
14699;DHT22;7439;50.804;4.602;2022-09-30T06:14:45;2.60;1.00
14699;DHT22;7439;50.804;4.602;2022-09-30T06:17:14;2.70;1.00
14699;DHT22;7439;50.804;4.602;2022-09-30T06:19:43;2.70;99.90
14699;DHT22;7439;50.804;4.602;2022-09-30T06:22:11;2.80;99.90
14699;DHT22;7439;50.804;4.602;2022-09-30T06:24:38;2.90;99.90
14699;DHT22;7439;50.804;4.602;2022-09-30T06:27:06;3.00;1.00
14699;DHT22;7439;50.804;4.602;2022-09-30T06:29:34;3.00;1.00
14699;DHT22;7439;50.804;4.602;2022-09-30T06:32:01;3.10;16.10
14699;DHT22;7439;50.804;4.602;2022-09-30T06:34:30;3.20;99.90
14699;DHT22;7439;50.804;4.602;2022-09-30T06:36:57;3.30;99.90
14699;DHT22;7439;50.804;4.602;2022-09-30T06:39:24;3.40;1.00
14699;DHT22;7439;50.804;4.602;2022-09-30T06:41:52;3.60;1.00
14699;DHT22;7439;50.804;4.602;2022-09-30T06:44:21;3.70;99.90
14699;DHT22;7439;50.804;4.602;2022-09-30T06:46:48;3.80;99.90
14699;DHT22;7439;50.804;4.602;2022-09-30T06:49:15;3.90;99.90
14699;DHT22;7439;50.804;4.602;2022-09-30T06:51:43;4.00;1.00
14699;DHT22;7439;50.804;4.602;2022-09-30T06:54:11;4.30;1.00
14699;DHT22;7439;50.804;4.602;2022-09-30T06:56:38;4.40;99.90
14699;DHT22;7439;50.804;4.602;2022-09-30T06:59:05;4.70;99.90
14699;DHT22;7439;50.804;4.602;2022-09-30T07:01:35;4.80;99.90
14699;DHT22;7439;50.804;4.602;2022-09-30T07:04:04;5.00;1.00
14699;DHT22;7439;50.804;4.602;2022-09-30T07:06:34;5.10;1.00
14699;DHT22;7439;50.804;4.602;2022-09-30T07:09:04;5.30;1.00
14699;DHT22;7439;50.804;4.602;2022-09-30T07:11:32;5.50;1.00
14699;DHT22;7439;50.804;4.602;2022-09-30T07:13:59;5.80;1.00
14699;DHT22;7439;50.804;4.602;2022-09-30T07:16:26;6.20;1.00
14699;DHT22;7439;50.804;4.602;2022-09-30T07:18:54;6.30;1.00
14699;DHT22;7439;50.804;4.602;2022-09-30T07:21:22;6.60;56.10
14699;DHT22;7439;50.804;4.602;2022-09-30T07:23:49;6.80;97.00
14699;DHT22;7439;50.804;4.602;2022-09-30T07:26:21;7.00;99.90
14699;DHT22;7439;50.804;4.602;2022-09-30T07:28:49;7.30;99.90
14699;DHT22;7439;50.804;4.602;2022-09-30T07:31:18;7.50;99.90
14699;DHT22;7439;50.804;4.602;2022-09-30T07:33:46;7.70;99.90
14699;DHT22;7439;50.804;4.602;2022-09-30T07:36:16;7.90;99.90
14699;DHT22;7439;50.804;4.602;2022-09-30T07:38:45;8.10;99.90
14699;DHT22;7439;50.804;4.602;2022-09-30T07:41:16;8.30;99.90
14699;DHT22;7439;50.804;4.602;2022-09-30T07:43:46;8.40;99.90
14699;DHT22;7439;50.804;4.602;2022-09-30T07:46:15;8.50;80.60
14699;DHT22;7439;50.804;4.602;2022-09-30T07:48:44;8.70;22.10
14699;DHT22;7439;50.804;4.602;2022-09-30T07:51:14;8.80;1.00
14699;DHT22;7439;50.804;4.602;2022-09-30T07:53:44;9.10;1.00
14699;DHT22;7439;50.804;4.602;2022-09-30T07:56:12;9.40;1.00
14699;DHT22;7439;50.804;4.602;2022-09-30T07:58:42;9.80;1.00
14699;DHT22;7439;50.804;4.602;2022-09-30T08:01:12;10.00;1.00
14699;DHT22;7439;50.804;4.602;2022-09-30T08:03:41;10.30;99.90
14699;DHT22;7439;50.804;4.602;2022-09-30T08:06:14;10.50;1.00
14699;DHT22;7439;50.804;4.602;2022-09-30T08:08:42;10.70;1.00
14699;DHT22;7439;50.804;4.602;2022-09-30T08:11:13;11.10;99.90
14699;DHT22;7439;50.804;4.602;2022-09-30T08:13:40;11.20;1.00
14699;DHT22;7439;50.804;4.602;2022-09-30T08:16:07;11.50;99.90
14699;DHT22;7439;50.804;4.602;2022-09-30T08:18:41;11.60;1.00
14699;DHT22;7439;50.804;4.602;2022-09-30T08:21:10;12.00;1.00
14699;DHT22;7439;50.804;4.602;2022-09-30T08:23:38;12.10;1.00
14699;DHT22;7439;50.804;4.602;2022-09-30T08:26:09;12.40;1.00
14699;DHT22;7439;50.804;4.602;2022-09-30T08:28:37;12.70;1.00
14699;DHT22;7439;50.804;4.602;2022-09-30T08:31:05;12.90;84.10
14699;DHT22;7439;50.804;4.602;2022-09-30T08:33:33;13.00;99.90
14699;DHT22;7439;50.804;4.602;2022-09-30T08:36:03;13.30;1.00
14699;DHT22;7439;50.804;4.602;2022-09-30T08:38:34;13.70;99.90
14699;DHT22;7439;50.804;4.602;2022-09-30T08:41:14;13.90;18.70
14699;DHT22;7439;50.804;4.602;2022-09-30T08:43:54;13.80;1.00
14699;DHT22;7439;50.804;4.602;2022-09-30T08:46:32;13.90;99.90
14699;DHT22;7439;50.804;4.602;2022-09-30T08:49:18;14.10;99.90
14699;DHT22;7439;50.804;4.602;2022-09-30T08:51:49;14.50;81.40
14699;DHT22;7439;50.804;4.602;2022-09-30T08:54:21;14.60;1.00
14699;DHT22;7439;50.804;4.602;2022-09-30T08:56:49;14.70;1.00
14699;DHT22;7439;50.804;4.602;2022-09-30T08:59:26;14.60;1.00
14699;DHT22;7439;50.804;4.602;2022-09-30T09:02:00;14.70;1.00
14699;DHT22;7439;50.804;4.602;2022-09-30T09:04:28;14.90;1.00
14699;DHT22;7439;50.804;4.602;2022-09-30T09:07:03;15.40;1.00
14699;DHT22;7439;50.804;4.602;2022-09-30T09:09:47;15.70;99.90
14699;DHT22;7439;50.804;4.602;2022-09-30T09:12:26;15.70;99.90
14699;DHT22;7439;50.804;4.602;2022-09-30T09:15:13;15.90;99.90
14699;DHT22;7439;50.804;4.602;2022-09-30T09:18:09;16.30;99.90
14699;DHT22;7439;50.804;4.602;2022-09-30T09:20:49;16.50;99.90
14699;DHT22;7439;50.804;4.602;2022-09-30T09:23:21;16.80;99.90
14699;DHT22;7439;50.804;4.602;2022-09-30T09:25:48;16.80;99.90
14699;DHT22;7439;50.804;4.602;2022-09-30T09:28:27;16.70;99.90
14699;DHT22;7439;50.804;4.602;2022-09-30T09:30:59;16.80;99.90
14699;DHT22;7439;50.804;4.602;2022-09-30T09:33:29;17.10;99.90
14699;DHT22;7439;50.804;4.602;2022-09-30T09:36:06;16.80;99.90
14699;DHT22;7439;50.804;4.602;2022-09-30T09:38:45;16.90;99.90
14699;DHT22;7439;50.804;4.602;2022-09-30T09:41:28;18.10;99.90
14699;DHT22;7439;50.804;4.602;2022-09-30T09:44:02;18.30;99.70
14699;DHT22;7439;50.804;4.602;2022-09-30T09:46:36;18.30;95.80
14699;DHT22;7439;50.804;4.602;2022-09-30T09:49:31;18.50;72.20
14699;DHT22;7439;50.804;4.602;2022-09-30T09:54:58;19.00;40.10
14699;DHT22;7439;50.804;4.602;2022-09-30T09:57:27;18.60;21.40
14699;DHT22;7439;50.804;4.602;2022-09-30T09:59:58;18.60;15.40
14699;DHT22;7439;50.804;4.602;2022-09-30T10:02:57;18.90;9.50
14699;DHT22;7439;50.804;4.602;2022-09-30T10:05:25;19.10;1.00
14699;DHT22;7439;50.804;4.602;2022-09-30T10:08:08;18.80;1.00
14699;DHT22;7439;50.804;4.602;2022-09-30T10:10:53;18.50;1.00
14699;DHT22;7439;50.804;4.602;2022-09-30T10:13:22;18.80;1.00
14699;DHT22;7439;50.804;4.602;2022-09-30T10:15:51;19.40;1.00
14699;DHT22;7439;50.804;4.602;2022-09-30T10:18:22;19.80;1.00
14699;DHT22;7439;50.804;4.602;2022-09-30T10:20:53;20.20;1.00
14699;DHT22;7439;50.804;4.602;2022-09-30T10:23:24;19.60;1.00
14699;DHT22;7439;50.804;4.602;2022-09-30T10:25:59;19.20;1.00
14699;DHT22;7439;50.804;4.602;2022-09-30T10:28:30;19.50;1.00
14699;DHT22;7439;50.804;4.602;2022-09-30T10:31:02;19.70;1.00
14699;DHT22;7439;50.804;4.602;2022-09-30T10:33:40;19.50;1.00
14699;DHT22;7439;50.804;4.602;2022-09-30T10:36:19;19.80;1.00
14699;DHT22;7439;50.804;4.602;2022-09-30T10:38:57;20.80;1.00
14699;DHT22;7439;50.804;4.602;2022-09-30T10:41:28;20.80;1.00
14699;DHT22;7439;50.804;4.602;2022-09-30T10:43:57;21.10;1.00
14699;DHT22;7439;50.804;4.602;2022-09-30T10:46:28;22.00;1.00
14699;DHT22;7439;50.804;4.602;2022-09-30T10:48:57;22.80;1.00
14699;DHT22;7439;50.804;4.602;2022-09-30T10:51:30;22.30;1.00
14699;DHT22;7439;50.804;4.602;2022-09-30T10:54:01;21.70;1.00
14699;DHT22;7439;50.804;4.602;2022-09-30T10:56:39;21.40;1.00
14699;DHT22;7439;50.804;4.602;2022-09-30T11:02:04;22.20;1.00
14699;DHT22;7439;50.804;4.602;2022-09-30T11:04:41;22.30;1.00
14699;DHT22;7439;50.804;4.602;2022-09-30T11:07:16;23.50;1.00
14699;DHT22;7439;50.804;4.602;2022-09-30T11:09:57;22.30;1.00
14699;DHT22;7439;50.804;4.602;2022-09-30T11:12:37;21.00;1.00
14699;DHT22;7439;50.804;4.602;2022-09-30T11:15:12;21.30;1.00
14699;DHT22;7439;50.804;4.602;2022-09-30T11:17:48;22.10;1.00
14699;DHT22;7439;50.804;4.602;2022-09-30T11:20:20;22.30;1.00
14699;DHT22;7439;50.804;4.602;2022-09-30T11:22:56;21.20;1.00
14699;DHT22;7439;50.804;4.602;2022-09-30T11:25:34;21.60;1.00
14699;DHT22;7439;50.804;4.602;2022-09-30T11:28:18;20.60;1.00
14699;DHT22;7439;50.804;4.602;2022-09-30T11:30:55;19.80;1.00
14699;DHT22;7439;50.804;4.602;2022-09-30T11:33:36;20.70;1.00
14699;DHT22;7439;50.804;4.602;2022-09-30T11:36:12;22.20;1.00
14699;DHT22;7439;50.804;4.602;2022-09-30T11:39:02;21.90;1.00
14699;DHT22;7439;50.804;4.602;2022-09-30T11:41:33;21.90;1.00
14699;DHT22;7439;50.804;4.602;2022-09-30T11:44:13;21.70;1.00
14699;DHT22;7439;50.804;4.602;2022-09-30T11:46:56;20.50;1.00
14699;DHT22;7439;50.804;4.602;2022-09-30T11:52:26;18.50;1.00
14699;DHT22;7439;50.804;4.602;2022-09-30T11:55:09;17.90;1.00
14699;DHT22;7439;50.804;4.602;2022-09-30T11:57:46;17.60;1.00
14699;DHT22;7439;50.804;4.602;2022-09-30T12:00:19;17.30;1.00
14699;DHT22;7439;50.804;4.602;2022-09-30T12:02:48;17.00;1.00
14699;DHT22;7439;50.804;4.602;2022-09-30T12:05:21;16.80;1.00
14699;DHT22;7439;50.804;4.602;2022-09-30T12:07:53;18.50;1.00
14699;DHT22;7439;50.804;4.602;2022-09-30T12:10:26;21.20;1.00
14699;DHT22;7439;50.804;4.602;2022-09-30T12:12:59;23.00;1.00
14699;DHT22;7439;50.804;4.602;2022-09-30T12:15:35;22.70;1.00
14699;DHT22;7439;50.804;4.602;2022-09-30T12:18:05;21.10;1.00
14699;DHT22;7439;50.804;4.602;2022-09-30T12:20:37;20.50;1.00
14699;DHT22;7439;50.804;4.602;2022-09-30T12:23:13;21.20;1.00
14699;DHT22;7439;50.804;4.602;2022-09-30T12:25:46;20.40;1.00
14699;DHT22;7439;50.804;4.602;2022-09-30T12:28:22;19.40;1.00
14699;DHT22;7439;50.804;4.602;2022-09-30T12:31:39;18.20;1.00
14699;DHT22;7439;50.804;4.602;2022-09-30T12:34:21;17.40;1.00
14699;DHT22;7439;50.804;4.602;2022-09-30T12:37:07;17.00;1.00
14699;DHT22;7439;50.804;4.602;2022-09-30T12:39:55;16.90;1.00
14699;DHT22;7439;50.804;4.602;2022-09-30T12:42:42;16.90;1.00
14699;DHT22;7439;50.804;4.602;2022-09-30T12:48:27;17.00;1.00
14699;DHT22;7439;50.804;4.602;2022-09-30T12:50:59;17.10;1.00
14699;DHT22;7439;50.804;4.602;2022-09-30T12:53:28;17.00;1.00
14699;DHT22;7439;50.804;4.602;2022-09-30T12:56:02;16.90;1.00
14699;DHT22;7439;50.804;4.602;2022-09-30T12:58:35;18.10;1.00
14699;DHT22;7439;50.804;4.602;2022-09-30T13:01:11;18.70;1.00
14699;DHT22;7439;50.804;4.602;2022-09-30T13:03:50;18.20;1.00
14699;DHT22;7439;50.804;4.602;2022-09-30T13:06:20;17.70;1.00
14699;DHT22;7439;50.804;4.602;2022-09-30T13:09:15;17.30;1.00
14699;DHT22;7439;50.804;4.602;2022-09-30T13:11:44;17.20;1.00
14699;DHT22;7439;50.804;4.602;2022-09-30T13:14:34;17.30;1.00
14699;DHT22;7439;50.804;4.602;2022-09-30T13:17:26;17.80;1.00
14699;DHT22;7439;50.804;4.602;2022-09-30T13:19:55;18.30;1.00
14699;DHT22;7439;50.804;4.602;2022-09-30T13:22:55;17.80;1.00
14699;DHT22;7439;50.804;4.602;2022-09-30T13:25:22;17.10;1.00
14699;DHT22;7439;50.804;4.602;2022-09-30T13:27:50;16.90;1.00
14699;DHT22;7439;50.804;4.602;2022-09-30T13:30:39;16.80;1.00
14699;DHT22;7439;50.804;4.602;2022-09-30T13:33:39;17.10;1.00
14699;DHT22;7439;50.804;4.602;2022-09-30T13:36:27;17.30;1.00
14699;DHT22;7439;50.804;4.602;2022-09-30T13:39:20;17.30;1.00
14699;DHT22;7439;50.804;4.602;2022-09-30T13:41:59;17.80;1.00
14699;DHT22;7439;50.804;4.602;2022-09-30T13:44:33;18.00;1.00
14699;DHT22;7439;50.804;4.602;2022-09-30T13:47:12;18.00;1.00
14699;DHT22;7439;50.804;4.602;2022-09-30T13:49:46;17.60;1.00
14699;DHT22;7439;50.804;4.602;2022-09-30T13:52:19;17.50;1.00
14699;DHT22;7439;50.804;4.602;2022-09-30T13:54:49;17.30;1.00
14699;DHT22;7439;50.804;4.602;2022-09-30T13:57:24;17.40;1.00
14699;DHT22;7439;50.804;4.602;2022-09-30T14:00:10;17.30;1.00
14699;DHT22;7439;50.804;4.602;2022-09-30T14:02:51;17.40;1.00
14699;DHT22;7439;50.804;4.602;2022-09-30T14:05:51;17.30;1.00
14699;DHT22;7439;50.804;4.602;2022-09-30T14:08:45;17.20;1.00
14699;DHT22;7439;50.804;4.602;2022-09-30T14:11:40;16.80;1.00
14699;DHT22;7439;50.804;4.602;2022-09-30T14:17:25;17.00;1.00
14699;DHT22;7439;50.804;4.602;2022-09-30T14:20:03;17.00;1.00
14699;DHT22;7439;50.804;4.602;2022-09-30T14:22:35;16.80;1.00
14699;DHT22;7439;50.804;4.602;2022-09-30T14:25:13;16.90;1.00
14699;DHT22;7439;50.804;4.602;2022-09-30T14:28:02;16.70;1.00
14699;DHT22;7439;50.804;4.602;2022-09-30T14:30:35;16.80;1.00
14699;DHT22;7439;50.804;4.602;2022-09-30T14:33:09;16.70;1.00
14699;DHT22;7439;50.804;4.602;2022-09-30T14:35:38;16.70;1.00
14699;DHT22;7439;50.804;4.602;2022-09-30T14:38:12;16.70;1.00
14699;DHT22;7439;50.804;4.602;2022-09-30T14:40:50;16.50;1.00
14699;DHT22;7439;50.804;4.602;2022-09-30T14:43:20;16.40;1.00
14699;DHT22;7439;50.804;4.602;2022-09-30T14:45:51;16.50;1.00
14699;DHT22;7439;50.804;4.602;2022-09-30T14:48:22;16.50;1.00
14699;DHT22;7439;50.804;4.602;2022-09-30T14:50:54;16.50;1.00
14699;DHT22;7439;50.804;4.602;2022-09-30T14:53:24;16.50;1.00
14699;DHT22;7439;50.804;4.602;2022-09-30T14:55:54;16.60;1.00
14699;DHT22;7439;50.804;4.602;2022-09-30T14:58:26;16.70;1.00
14699;DHT22;7439;50.804;4.602;2022-09-30T15:01:00;16.50;1.00
14699;DHT22;7439;50.804;4.602;2022-09-30T15:03:29;16.30;1.00
14699;DHT22;7439;50.804;4.602;2022-09-30T15:05:59;16.10;1.00
14699;DHT22;7439;50.804;4.602;2022-09-30T15:08:27;16.00;1.00
14699;DHT22;7439;50.804;4.602;2022-09-30T15:10:56;16.10;1.00
14699;DHT22;7439;50.804;4.602;2022-09-30T15:13:25;16.10;1.00
14699;DHT22;7439;50.804;4.602;2022-09-30T15:15:53;16.10;1.00
14699;DHT22;7439;50.804;4.602;2022-09-30T15:18:32;16.10;1.00
14699;DHT22;7439;50.804;4.602;2022-09-30T15:21:05;16.20;1.00
14699;DHT22;7439;50.804;4.602;2022-09-30T15:23:37;16.20;1.00
14699;DHT22;7439;50.804;4.602;2022-09-30T15:26:11;16.20;1.00
14699;DHT22;7439;50.804;4.602;2022-09-30T15:28:42;16.20;1.00
14699;DHT22;7439;50.804;4.602;2022-09-30T15:31:19;16.10;1.00
14699;DHT22;7439;50.804;4.602;2022-09-30T15:33:47;16.00;1.00
14699;DHT22;7439;50.804;4.602;2022-09-30T15:36:15;16.00;1.00
14699;DHT22;7439;50.804;4.602;2022-09-30T15:38:47;16.00;1.00
14699;DHT22;7439;50.804;4.602;2022-09-30T15:41:17;15.80;1.00
14699;DHT22;7439;50.804;4.602;2022-09-30T15:43:46;15.70;1.00
14699;DHT22;7439;50.804;4.602;2022-09-30T15:46:27;15.60;1.00
14699;DHT22;7439;50.804;4.602;2022-09-30T15:48:57;15.60;1.00
14699;DHT22;7439;50.804;4.602;2022-09-30T15:51:34;15.70;1.00
14699;DHT22;7439;50.804;4.602;2022-09-30T15:54:24;15.60;1.00
14699;DHT22;7439;50.804;4.602;2022-09-30T15:56:54;15.50;1.00
14699;DHT22;7439;50.804;4.602;2022-09-30T15:59:22;15.40;1.00
14699;DHT22;7439;50.804;4.602;2022-09-30T16:02:13;15.40;1.00
14699;DHT22;7439;50.804;4.602;2022-09-30T16:04:49;15.30;1.00
14699;DHT22;7439;50.804;4.602;2022-09-30T16:07:20;15.30;1.00
14699;DHT22;7439;50.804;4.602;2022-09-30T16:09:49;15.20;1.00
14699;DHT22;7439;50.804;4.602;2022-09-30T16:12:20;15.10;1.00
14699;DHT22;7439;50.804;4.602;2022-09-30T16:14:51;15.00;1.00
14699;DHT22;7439;50.804;4.602;2022-09-30T16:17:22;14.90;1.00
14699;DHT22;7439;50.804;4.602;2022-09-30T16:19:51;14.80;1.00
14699;DHT22;7439;50.804;4.602;2022-09-30T16:22:47;14.60;1.00
14699;DHT22;7439;50.804;4.602;2022-09-30T16:25:19;14.60;1.00
14699;DHT22;7439;50.804;4.602;2022-09-30T16:27:53;14.40;1.00
14699;DHT22;7439;50.804;4.602;2022-09-30T16:30:22;14.30;1.00
14699;DHT22;7439;50.804;4.602;2022-09-30T16:32:51;14.10;1.00
14699;DHT22;7439;50.804;4.602;2022-09-30T16:35:21;14.00;1.00
14699;DHT22;7439;50.804;4.602;2022-09-30T16:37:49;13.90;1.00
14699;DHT22;7439;50.804;4.602;2022-09-30T16:40:20;13.70;1.00
14699;DHT22;7439;50.804;4.602;2022-09-30T16:42:49;13.60;1.00
14699;DHT22;7439;50.804;4.602;2022-09-30T16:45:20;13.50;1.00
14699;DHT22;7439;50.804;4.602;2022-09-30T16:47:47;13.40;1.00
14699;DHT22;7439;50.804;4.602;2022-09-30T16:50:22;13.30;1.00
14699;DHT22;7439;50.804;4.602;2022-09-30T16:52:51;13.20;1.00
14699;DHT22;7439;50.804;4.602;2022-09-30T16:55:18;13.20;1.00
14699;DHT22;7439;50.804;4.602;2022-09-30T16:57:45;13.00;1.00
14699;DHT22;7439;50.804;4.602;2022-09-30T17:00:14;13.00;1.00
14699;DHT22;7439;50.804;4.602;2022-09-30T17:02:46;13.00;1.00
14699;DHT22;7439;50.804;4.602;2022-09-30T17:05:19;12.90;1.00